createdAt,value
2018-07-12T00:01:15.406Z,81.77
2018-07-12T00:03:42.642Z,81.96
2018-07-12T00:06:09.755Z,81.52
2018-07-12T00:08:36.858Z,82.15
2018-07-12T00:11:03.963Z,81.93
2018-07-12T00:13:31.063Z,81.54
2018-07-12T00:15:58.162Z,81.66
2018-07-12T00:18:25.262Z,81.39
2018-07-12T00:20:52.378Z,81.25
2018-07-12T00:23:19.486Z,81.16
2018-07-12T00:25:46.579Z,81.35
2018-07-12T00:28:13.687Z,80.93
2018-07-12T00:30:40.787Z,80.76
2018-07-12T00:33:08.450Z,81.00
2018-07-12T00:35:35.575Z,80.85
2018-07-12T00:38:02.688Z,80.60
2018-07-12T00:40:29.787Z,80.23
2018-07-12T00:42:56.966Z,80.29
2018-07-12T00:45:24.063Z,80.13
2018-07-12T00:47:51.225Z,79.87
2018-07-12T00:50:18.330Z,79.96
2018-07-12T00:52:45.439Z,79.85
2018-07-12T00:55:12.551Z,79.79
2018-07-12T00:57:39.654Z,80.04
2018-07-12T01:00:06.756Z,79.53
2018-07-12T01:02:33.851Z,79.74
2018-07-12T01:05:00.959Z,79.91
2018-07-12T01:07:28.061Z,79.60
2018-07-12T01:09:55.190Z,79.33
2018-07-12T01:12:22.299Z,79.28
2018-07-12T01:14:49.400Z,79.25
2018-07-12T01:17:16.502Z,79.19
2018-07-12T01:19:43.602Z,79.20
2018-07-12T01:22:10.708Z,78.83
2018-07-12T01:24:37.810Z,78.71
2018-07-12T01:27:04.924Z,79.33
2018-07-12T01:29:32.023Z,79.16
2018-07-12T01:31:59.140Z,79.41
2018-07-12T01:34:26.242Z,79.00
2018-07-12T01:36:53.363Z,79.33
2018-07-12T01:39:20.466Z,79.28
2018-07-12T01:41:47.567Z,79.58
2018-07-12T01:44:14.677Z,79.26
2018-07-12T01:46:41.778Z,79.44
2018-07-12T01:49:08.879Z,79.23
2018-07-12T01:51:35.985Z,79.18
2018-07-12T01:54:03.086Z,78.97
2018-07-12T01:59:03.747Z,79.07
2018-07-12T02:01:30.847Z,79.11
2018-07-12T02:03:57.960Z,78.81
2018-07-12T02:06:25.063Z,78.58
2018-07-12T02:08:52.163Z,78.80
2018-07-12T02:11:19.262Z,78.72
2018-07-12T02:13:46.367Z,79.06
2018-07-12T02:16:13.484Z,79.02
2018-07-12T02:18:40.587Z,79.09
2018-07-12T02:21:07.705Z,79.09
2018-07-12T02:23:34.807Z,78.95
2018-07-12T02:26:01.910Z,79.16
2018-07-12T02:28:29.014Z,79.21
2018-07-12T02:30:56.138Z,79.40
2018-07-12T02:33:23.243Z,79.54
2018-07-12T02:35:50.351Z,80.06
2018-07-12T02:38:17.465Z,80.73
2018-07-12T02:40:44.570Z,81.18
2018-07-12T02:43:11.678Z,81.26
2018-07-12T02:45:38.771Z,81.50
2018-07-12T02:48:05.879Z,81.59
2018-07-12T02:50:32.980Z,81.75
2018-07-12T02:53:00.087Z,81.75
2018-07-12T02:55:27.183Z,81.54
2018-07-12T02:57:54.290Z,81.74
2018-07-12T03:00:21.580Z,81.23
2018-07-12T03:02:48.667Z,81.48
2018-07-12T03:05:15.781Z,81.45
2018-07-12T03:07:42.891Z,80.83
2018-07-12T03:10:09.995Z,81.07
2018-07-12T03:12:37.098Z,81.16
2018-07-12T03:15:04.206Z,81.07
2018-07-12T03:17:31.310Z,80.72
2018-07-12T03:19:58.436Z,80.86
2018-07-12T03:22:25.530Z,80.69
2018-07-12T03:24:52.638Z,80.72
2018-07-12T03:27:19.793Z,80.45
2018-07-12T03:29:46.846Z,80.47
2018-07-12T03:32:13.991Z,80.30
2018-07-12T03:34:41.062Z,80.57
2018-07-12T03:37:08.174Z,80.47
2018-07-12T03:39:35.311Z,80.49
2018-07-12T03:42:02.427Z,80.20
2018-07-12T03:44:29.533Z,80.32
2018-07-12T03:46:56.655Z,80.37
2018-07-12T03:49:23.763Z,80.81
2018-07-12T03:51:50.859Z,80.77
2018-07-12T03:54:18.147Z,80.79
2018-07-12T03:56:45.254Z,80.74
2018-07-12T03:59:12.363Z,80.91
2018-07-12T04:01:39.462Z,80.66
2018-07-12T04:04:06.579Z,80.39
2018-07-12T04:06:33.684Z,80.47
2018-07-12T04:09:00.803Z,79.80
2018-07-12T04:11:27.903Z,79.76
2018-07-12T04:13:55.002Z,79.95
2018-07-12T04:16:22.111Z,80.06
2018-07-12T04:18:49.306Z,79.84
2018-07-12T04:21:16.432Z,79.29
2018-07-12T04:23:43.572Z,79.31
2018-07-12T04:26:10.672Z,79.12
2018-07-12T04:28:37.774Z,79.13
2018-07-12T04:31:04.883Z,78.92
2018-07-12T04:33:31.998Z,79.10
2018-07-12T04:35:59.104Z,79.06
2018-07-12T04:38:26.209Z,79.11
2018-07-12T04:40:53.323Z,78.76
2018-07-12T04:43:20.430Z,78.74
2018-07-12T04:45:47.535Z,78.63
2018-07-12T04:48:14.841Z,78.94
2018-07-12T04:50:41.955Z,78.57
2018-07-12T04:53:09.075Z,79.16
2018-07-12T04:55:36.187Z,79.15
2018-07-12T04:58:03.327Z,78.77
2018-07-12T05:00:30.431Z,78.78
2018-07-12T05:02:57.543Z,78.85
2018-07-12T05:05:24.654Z,78.92
2018-07-12T05:07:51.763Z,78.71
2018-07-12T05:10:18.879Z,78.41
2018-07-12T05:12:45.979Z,78.25
2018-07-12T05:15:13.087Z,78.05
2018-07-12T05:17:40.198Z,78.06
2018-07-12T05:20:07.334Z,77.81
2018-07-12T05:22:34.447Z,77.97
2018-07-12T05:25:01.535Z,77.71
2018-07-12T05:27:28.646Z,78.29
2018-07-12T05:29:55.745Z,78.06
2018-07-12T05:32:22.858Z,77.46
2018-07-12T05:34:49.959Z,76.91
2018-07-12T05:37:18.131Z,76.96
2018-07-12T05:39:46.299Z,76.87
2018-07-12T05:42:14.484Z,76.51
2018-07-12T05:44:42.654Z,76.79
2018-07-12T05:47:10.855Z,76.47
2018-07-12T05:49:39.027Z,76.30
2018-07-12T05:52:07.204Z,75.95
2018-07-12T05:54:35.382Z,75.51
2018-07-12T05:57:03.567Z,75.46
2018-07-12T05:59:31.743Z,75.59
2018-07-12T06:02:11.158Z,75.66
2018-07-12T06:04:39.339Z,75.85
2018-07-12T06:07:07.510Z,75.96
2018-07-12T06:09:35.695Z,76.19
2018-07-12T06:12:03.870Z,76.21
2018-07-12T06:14:32.046Z,76.40
2018-07-12T06:17:00.233Z,76.92
2018-07-12T06:19:28.393Z,76.96
2018-07-12T06:21:56.573Z,76.23
2018-07-12T06:24:24.762Z,75.36
2018-07-12T06:26:52.962Z,75.54
2018-07-12T06:29:21.141Z,75.47
2018-07-12T06:31:49.314Z,75.88
2018-07-12T06:34:17.486Z,75.47
2018-07-12T06:36:45.666Z,75.54
2018-07-12T06:39:13.834Z,75.33
2018-07-12T06:41:42.016Z,75.00
2018-07-12T06:44:10.198Z,74.24
2018-07-12T06:46:38.382Z,74.50
2018-07-12T06:49:06.562Z,74.07
2018-07-12T06:51:34.944Z,74.44
2018-07-12T06:54:03.123Z,73.29
2018-07-12T06:56:31.343Z,72.94
2018-07-12T06:58:59.510Z,71.87
2018-07-12T07:01:27.744Z,72.58
2018-07-12T07:03:56.015Z,72.70
2018-07-12T07:06:24.182Z,72.34
2018-07-12T07:08:52.375Z,71.61
2018-07-12T07:11:20.562Z,71.85
2018-07-12T07:13:49.142Z,70.92
2018-07-12T07:16:17.319Z,69.63
2018-07-12T07:18:45.515Z,68.68
2018-07-12T07:21:13.695Z,69.51
2018-07-12T07:23:42.027Z,68.90
2018-07-12T07:26:10.235Z,68.58
2018-07-12T07:28:38.351Z,68.34
2018-07-12T07:31:06.567Z,68.03
2018-07-12T07:33:34.722Z,67.48
2018-07-12T07:36:02.895Z,67.25
2018-07-12T07:38:31.066Z,67.20
2018-07-12T07:40:59.242Z,67.44
2018-07-12T07:43:27.404Z,67.26
2018-07-12T07:45:55.576Z,67.35
2018-07-12T07:48:23.730Z,67.64
2018-07-12T07:50:51.915Z,67.50
2018-07-12T07:53:20.083Z,67.95
2018-07-12T07:55:48.434Z,67.30
2018-07-12T07:58:16.630Z,66.00
2018-07-12T08:00:44.802Z,65.03
2018-07-12T08:03:13.125Z,65.46
2018-07-12T08:05:41.328Z,64.76
2018-07-12T08:08:09.490Z,63.49
2018-07-12T08:10:37.658Z,63.60
2018-07-12T08:13:05.822Z,62.86
2018-07-12T08:15:33.996Z,62.50
2018-07-12T08:18:02.167Z,63.62
2018-07-12T08:20:30.327Z,62.99
2018-07-12T08:22:58.495Z,62.70
2018-07-12T08:25:26.683Z,61.22
2018-07-12T08:28:06.178Z,60.96
2018-07-12T08:30:34.335Z,61.26
2018-07-12T08:33:02.509Z,62.08
2018-07-12T08:35:30.667Z,62.60
2018-07-12T08:37:58.840Z,61.93
2018-07-12T08:40:27.047Z,63.01
2018-07-12T08:42:55.171Z,62.76
2018-07-12T08:45:23.339Z,62.50
2018-07-12T08:47:51.506Z,62.08
2018-07-12T08:50:19.695Z,61.63
2018-07-12T08:52:47.869Z,62.02
2018-07-12T08:55:16.062Z,61.31
2018-07-12T08:57:44.423Z,60.47
2018-07-12T09:00:12.617Z,59.67
2018-07-12T09:02:41.107Z,58.62
2018-07-12T09:05:09.262Z,57.30
2018-07-12T09:07:37.434Z,57.56
2018-07-12T09:10:05.606Z,56.91
2018-07-12T09:12:33.803Z,56.99
2018-07-12T09:15:01.979Z,57.60
2018-07-12T09:17:30.160Z,56.77
2018-07-12T09:19:58.338Z,57.81
2018-07-12T09:22:26.511Z,57.13
2018-07-12T09:24:54.670Z,57.34
2018-07-12T09:27:22.838Z,56.42
2018-07-12T09:29:51.006Z,55.92
2018-07-12T09:32:19.190Z,54.91
2018-07-12T09:34:47.425Z,54.33
2018-07-12T09:37:15.535Z,55.30
2018-07-12T09:39:43.736Z,54.56
2018-07-12T09:42:11.858Z,54.06
2018-07-12T09:44:40.049Z,52.75
2018-07-12T09:47:08.235Z,51.78
2018-07-12T09:49:36.407Z,51.66
2018-07-12T09:52:08.750Z,52.09
2018-07-12T09:54:36.987Z,51.56
2018-07-12T09:57:16.362Z,51.51
2018-07-12T09:59:44.542Z,50.42
2018-07-12T10:02:18.086Z,50.45
2018-07-12T10:04:46.271Z,48.16
2018-07-12T10:07:19.649Z,48.28
2018-07-12T10:09:53.231Z,47.43
2018-07-12T10:12:26.842Z,46.89
2018-07-12T10:15:10.210Z,47.66
2018-07-12T10:17:43.514Z,50.24
2018-07-12T10:20:11.702Z,49.30
2018-07-12T10:22:39.879Z,48.48
2018-07-12T10:25:08.418Z,48.13
2018-07-12T10:27:36.551Z,46.86
2018-07-12T10:30:05.186Z,45.66
2018-07-12T10:32:33.346Z,43.75
2018-07-12T10:35:01.544Z,45.24
2018-07-12T10:37:29.727Z,43.82
2018-07-12T10:39:57.894Z,46.09
2018-07-12T10:42:26.060Z,46.08
2018-07-12T10:44:54.236Z,46.94
2018-07-12T10:47:22.550Z,47.09
2018-07-12T10:49:50.732Z,46.99
2018-07-12T10:52:18.915Z,44.65
2018-07-12T10:54:47.083Z,44.57
2018-07-12T10:57:15.262Z,44.65
2018-07-12T10:59:43.445Z,42.55
2018-07-12T11:02:11.623Z,43.49
2018-07-12T11:04:39.835Z,44.36
2018-07-12T11:07:08.007Z,44.19
2018-07-12T11:09:36.192Z,42.91
2018-07-12T11:12:04.359Z,41.29
2018-07-12T11:14:32.543Z,40.10
2018-07-12T11:17:00.710Z,41.34
2018-07-12T11:19:28.898Z,42.83
2018-07-12T11:21:57.059Z,43.66
2018-07-12T11:24:25.238Z,44.68
2018-07-12T11:26:53.423Z,43.57
2018-07-12T11:29:31.495Z,42.02
2018-07-12T11:31:59.702Z,42.41
2018-07-12T11:34:27.889Z,41.67
2018-07-12T11:36:56.108Z,40.54
2018-07-12T11:39:24.237Z,39.50
2018-07-12T11:41:52.445Z,40.24
2018-07-12T11:44:20.775Z,38.17
2018-07-12T11:46:49.007Z,38.60
2018-07-12T11:49:17.163Z,39.71
2018-07-12T11:51:45.519Z,38.38
2018-07-12T11:54:13.711Z,38.57
2018-07-12T11:56:42.118Z,39.31
2018-07-12T11:59:10.274Z,39.53
2018-07-12T12:01:38.509Z,39.42
2018-07-12T12:04:06.954Z,40.48
2018-07-12T12:06:35.118Z,40.01
2018-07-12T12:09:04.603Z,38.38
2018-07-12T12:11:32.767Z,40.31
2018-07-12T12:14:00.943Z,39.74
2018-07-12T12:16:29.123Z,40.51
2018-07-12T12:18:57.306Z,40.85
2018-07-12T12:21:25.731Z,39.92
2018-07-12T12:23:53.911Z,39.68
2018-07-12T12:26:22.645Z,39.60
2018-07-12T12:28:51.200Z,37.25
2018-07-12T12:31:19.386Z,37.59
2018-07-12T12:33:47.566Z,37.39
2018-07-12T12:36:15.763Z,36.36
2018-07-12T12:38:43.930Z,38.14
2018-07-12T12:41:12.111Z,37.98
2018-07-12T12:43:40.295Z,40.00
2018-07-12T12:46:08.515Z,41.08
2018-07-12T12:48:36.695Z,41.61
2018-07-12T12:51:04.953Z,41.66
2018-07-12T12:53:33.166Z,41.67
2018-07-12T12:56:01.683Z,41.77
2018-07-12T12:58:29.893Z,42.24
2018-07-12T13:00:58.101Z,40.68
2018-07-12T13:03:27.615Z,39.98
2018-07-12T13:05:55.894Z,39.16
2018-07-12T13:08:24.056Z,38.29
2018-07-12T13:10:52.309Z,37.54
2018-07-12T13:13:20.478Z,36.26
2018-07-12T13:15:49.084Z,36.20
2018-07-12T13:18:17.530Z,36.48
2018-07-12T13:20:45.872Z,37.54
2018-07-12T13:23:14.137Z,36.26
2018-07-12T13:25:42.795Z,37.52
2018-07-12T13:28:10.958Z,37.10
2018-07-12T13:30:39.263Z,37.25
2018-07-12T13:33:07.507Z,35.00
2018-07-12T13:35:35.976Z,36.26
2018-07-12T13:38:04.406Z,35.28
2018-07-12T13:40:32.742Z,35.56
2018-07-12T13:43:01.334Z,35.47
2018-07-12T13:45:29.994Z,36.75
2018-07-12T13:47:58.810Z,36.72
2018-07-12T13:50:28.047Z,37.84
2018-07-12T13:52:56.346Z,39.06
2018-07-12T13:55:24.814Z,38.67
2018-07-12T13:57:53.439Z,37.79
2018-07-12T14:00:22.170Z,37.41
2018-07-12T14:02:50.382Z,39.33
2018-07-12T14:05:19.869Z,38.98
2018-07-12T14:07:48.821Z,38.67
2018-07-12T14:10:17.146Z,39.35
2018-07-12T14:12:45.610Z,40.05
2018-07-12T14:15:13.775Z,38.70
2018-07-12T14:17:41.968Z,37.54
2018-07-12T14:20:10.131Z,37.20
2018-07-12T14:22:38.316Z,36.66
2018-07-12T14:25:06.506Z,37.92
2018-07-12T14:27:34.715Z,37.62
2018-07-12T14:30:02.891Z,37.86
2018-07-12T14:32:31.076Z,38.13
2018-07-12T14:34:59.275Z,38.04
2018-07-12T14:37:27.442Z,38.41
2018-07-12T14:39:55.619Z,39.43
2018-07-12T14:42:23.791Z,38.06
2018-07-12T14:44:51.971Z,37.05
2018-07-12T14:47:20.171Z,37.78
2018-07-12T14:49:48.347Z,38.34
2018-07-12T14:52:16.513Z,37.03
2018-07-12T14:54:44.682Z,36.29
2018-07-12T14:57:12.869Z,36.90
2018-07-12T14:59:41.059Z,35.72
2018-07-12T15:02:09.274Z,36.91
2018-07-12T15:04:37.451Z,34.83
2018-07-12T15:07:05.670Z,35.31
2018-07-12T15:09:33.919Z,36.24
2018-07-12T15:12:02.119Z,36.01
2018-07-12T15:14:30.286Z,36.03
2018-07-12T15:16:58.586Z,36.52
2018-07-12T15:19:26.851Z,36.49
2018-07-12T15:21:54.979Z,36.34
2018-07-12T15:24:23.183Z,35.08
2018-07-12T15:26:51.448Z,34.58
2018-07-12T15:29:19.711Z,35.90
2018-07-12T15:31:47.817Z,36.88
2018-07-12T15:34:16.091Z,34.75
2018-07-12T15:36:44.252Z,35.24
2018-07-12T15:39:12.430Z,35.01
2018-07-12T15:41:40.592Z,35.33
2018-07-12T15:44:08.973Z,36.29
2018-07-12T15:46:37.002Z,37.05
2018-07-12T15:49:05.374Z,36.52
2018-07-12T15:51:33.591Z,36.75
2018-07-12T15:54:01.834Z,36.33
2018-07-12T15:56:30.015Z,35.74
2018-07-12T15:58:58.333Z,36.73
2018-07-12T16:01:26.511Z,35.46
2018-07-12T16:03:54.805Z,34.98
2018-07-12T16:06:22.995Z,34.68
2018-07-12T16:08:51.166Z,35.08
2018-07-12T16:11:19.989Z,35.26
2018-07-12T16:13:48.211Z,34.92
2018-07-12T16:16:16.645Z,35.72
2018-07-12T16:18:44.851Z,35.26
2018-07-12T16:21:13.305Z,34.02
2018-07-12T16:23:41.616Z,34.56
2018-07-12T16:26:09.822Z,34.85
2018-07-12T16:28:38.031Z,35.03
2018-07-12T16:31:06.457Z,34.51
2018-07-12T16:33:34.684Z,34.90
2018-07-12T16:36:02.957Z,34.68
2018-07-12T16:38:31.414Z,35.38
2018-07-12T16:40:59.662Z,35.31
2018-07-12T16:43:27.906Z,34.16
2018-07-12T16:45:56.063Z,33.96
2018-07-12T16:48:24.238Z,34.61
2018-07-12T16:50:52.410Z,34.19
2018-07-12T16:53:20.582Z,34.69
2018-07-12T16:55:48.807Z,34.31
2018-07-12T16:58:17.072Z,35.06
2018-07-12T17:00:45.259Z,34.21
2018-07-12T17:03:13.544Z,35.47
2018-07-12T17:05:42.153Z,35.27
2018-07-12T17:08:10.318Z,34.79
2018-07-12T17:10:38.510Z,35.35
2018-07-12T17:13:06.697Z,35.26
2018-07-12T17:15:34.863Z,34.99
2018-07-12T17:18:03.027Z,35.47
2018-07-12T17:20:31.196Z,35.72
2018-07-12T17:22:59.367Z,35.42
2018-07-12T17:25:27.541Z,34.92
2018-07-12T17:27:55.699Z,35.57
2018-07-12T17:30:25.388Z,35.95
2018-07-12T17:32:53.554Z,36.31
2018-07-12T17:35:21.726Z,36.53
2018-07-12T17:37:49.887Z,37.14
2018-07-12T17:40:18.074Z,37.52
2018-07-12T17:42:46.251Z,35.74
2018-07-12T17:45:14.448Z,36.82
2018-07-12T17:47:42.651Z,37.44
2018-07-12T17:50:10.804Z,37.25
2018-07-12T17:52:39.002Z,36.97
2018-07-12T17:55:07.163Z,37.22
2018-07-12T17:57:35.342Z,38.39
2018-07-12T18:00:03.547Z,38.38
2018-07-12T18:02:31.744Z,38.13
2018-07-12T18:04:59.985Z,37.76
2018-07-12T18:07:28.135Z,37.80
2018-07-12T18:09:56.827Z,37.72
2018-07-12T18:12:25.004Z,37.44
2018-07-12T18:14:53.175Z,38.16
2018-07-12T18:17:21.402Z,37.67
2018-07-12T18:19:49.584Z,37.75
2018-07-12T18:22:17.888Z,38.06
2018-07-12T18:24:46.023Z,39.52
2018-07-12T18:27:14.238Z,38.57
2018-07-12T18:29:42.496Z,39.14
2018-07-12T18:32:10.819Z,39.09
2018-07-12T18:34:39.076Z,38.98
2018-07-12T18:37:07.287Z,39.54
2018-07-12T18:39:35.467Z,39.58
2018-07-12T18:42:03.772Z,39.91
2018-07-12T18:44:31.953Z,40.30
2018-07-12T18:47:00.137Z,41.09
2018-07-12T18:49:28.306Z,40.76
2018-07-12T18:51:56.710Z,40.83
2018-07-12T18:54:25.322Z,40.88
2018-07-12T18:56:56.240Z,41.76
2018-07-12T18:59:26.186Z,41.71
2018-07-12T19:01:54.455Z,42.57
2018-07-12T19:04:23.194Z,42.84
2018-07-12T19:06:51.653Z,43.16
2018-07-12T19:09:20.671Z,43.51
2018-07-12T19:11:49.429Z,44.01
2018-07-12T19:14:18.009Z,44.16
2018-07-12T19:16:46.672Z,44.23
2018-07-12T19:19:14.843Z,44.67
2018-07-12T19:21:43.030Z,44.70
2018-07-12T19:24:11.279Z,44.94
2018-07-12T19:26:39.487Z,44.75
2018-07-12T19:29:07.831Z,45.09
2018-07-12T19:31:36.187Z,45.26
2018-07-12T19:34:04.483Z,44.94
2018-07-12T19:36:32.652Z,44.92
2018-07-12T19:39:00.822Z,45.64
2018-07-12T19:41:29.012Z,45.21
2018-07-12T19:43:57.195Z,45.24
2018-07-12T19:46:25.459Z,45.11
2018-07-12T19:48:53.739Z,45.46
2018-07-12T19:51:21.899Z,45.70
2018-07-12T19:53:50.081Z,45.50
2018-07-12T19:56:18.247Z,45.86
2018-07-12T19:58:46.426Z,45.90
2018-07-12T20:01:14.605Z,45.84
2018-07-12T20:03:42.857Z,45.61
2018-07-12T20:06:10.991Z,45.89
2018-07-12T20:08:39.170Z,46.03
2018-07-12T20:11:07.350Z,46.18
2018-07-12T20:13:35.542Z,46.42
2018-07-12T20:16:03.746Z,46.55
2018-07-12T20:18:31.911Z,46.44
2018-07-12T20:21:00.092Z,46.06
2018-07-12T20:23:28.252Z,46.75
2018-07-12T20:25:56.636Z,46.37
2018-07-12T20:28:24.787Z,47.20
2018-07-12T20:30:52.982Z,46.66
2018-07-12T20:33:21.155Z,46.89
2018-07-12T20:35:49.331Z,46.81
2018-07-12T20:38:17.527Z,47.36
2018-07-12T20:40:45.985Z,47.20
2018-07-12T20:43:18.244Z,47.70
2018-07-12T20:45:46.807Z,47.33
2018-07-12T20:48:15.406Z,47.88
2018-07-12T20:50:43.510Z,47.84
2018-07-12T20:53:11.691Z,48.26
2018-07-12T20:55:39.866Z,48.55
2018-07-12T20:58:08.059Z,49.10
2018-07-12T21:00:36.231Z,49.91
2018-07-12T21:03:04.428Z,50.33
2018-07-12T21:05:32.595Z,50.31
2018-07-12T21:08:00.772Z,50.47
2018-07-12T21:10:29.002Z,50.25
2018-07-12T21:12:57.255Z,50.50
2018-07-12T21:15:25.504Z,50.54
2018-07-12T21:17:53.607Z,51.00
2018-07-12T21:20:21.799Z,51.39
2018-07-12T21:22:49.949Z,51.54
2018-07-12T21:25:18.115Z,52.02
2018-07-12T21:27:46.280Z,52.07
2018-07-12T21:30:14.464Z,52.19
2018-07-12T21:32:42.619Z,52.72
2018-07-12T21:35:10.779Z,52.60
2018-07-12T21:37:38.962Z,53.16
2018-07-12T21:40:07.460Z,53.01
2018-07-12T21:42:35.632Z,53.44
2018-07-12T21:45:03.882Z,53.71
2018-07-12T21:48:52.795Z,54.18
2018-07-12T21:51:20.966Z,54.30
2018-07-12T21:53:49.136Z,54.38
2018-07-12T21:56:17.306Z,54.68
2018-07-12T21:58:45.559Z,55.05
2018-07-12T22:01:14.019Z,55.52
2018-07-12T22:03:42.219Z,56.16
2018-07-12T22:06:10.380Z,56.02
2018-07-12T22:08:38.547Z,56.76
2018-07-12T22:11:07.169Z,57.12
2018-07-12T22:13:36.540Z,56.76
2018-07-12T22:16:04.735Z,57.41
2018-07-12T22:18:33.063Z,57.42
2018-07-12T22:21:01.260Z,57.87
2018-07-12T22:23:29.435Z,57.60
2018-07-12T22:25:57.628Z,58.21
2018-07-12T22:28:25.794Z,58.66
2018-07-12T22:30:53.970Z,58.78
2018-07-12T22:33:22.141Z,59.12
2018-07-12T22:35:50.314Z,59.03
2018-07-12T22:38:18.482Z,59.15
2018-07-12T22:40:46.658Z,59.24
2018-07-12T22:43:14.842Z,59.47
2018-07-12T22:45:43.003Z,60.03
2018-07-12T22:48:11.239Z,59.97
2018-07-12T22:50:39.338Z,60.63
2018-07-12T22:53:07.499Z,60.80
2018-07-12T22:55:35.678Z,60.37
2018-07-12T22:58:03.843Z,60.91
2018-07-12T23:00:32.013Z,61.16
2018-07-12T23:03:00.179Z,61.31
2018-07-12T23:05:28.359Z,61.29
2018-07-12T23:07:56.546Z,61.93
2018-07-12T23:10:24.718Z,61.85
2018-07-12T23:12:52.883Z,61.89
2018-07-12T23:15:21.055Z,62.44
2018-07-12T23:17:49.223Z,62.55
2018-07-12T23:20:17.386Z,62.66
2018-07-12T23:22:45.558Z,62.78
2018-07-12T23:25:13.724Z,62.74
2018-07-12T23:27:41.882Z,63.07
2018-07-12T23:30:10.063Z,63.33
2018-07-12T23:32:38.234Z,63.98
2018-07-12T23:35:06.564Z,63.91
2018-07-12T23:37:34.743Z,64.48
2018-07-12T23:40:02.906Z,64.57
2018-07-12T23:42:31.106Z,65.12
2018-07-12T23:44:59.270Z,64.67
2018-07-12T23:47:27.442Z,64.99
2018-07-12T23:49:55.610Z,65.35
2018-07-12T23:52:23.783Z,64.98
2018-07-12T23:54:51.948Z,65.50
2018-07-12T23:57:20.119Z,65.67
2018-07-12T23:59:48.306Z,65.53
